Time;durP1;ratioP1;P1;durP2;ratioP2;P2;SDS_P1;SDS_P2;PMS_P1;PMS_P2;Temp;Humidity;BMP_temperature;BMP_pressure;BME280_temperature;BME280_humidity;BME280_pressure;Samples;Min_cycle;Max_cycle;Signal;HPM_P1;HPM_P2
2022/09/25 00:00:41;;;;;;;15.95;14.25;;;;;;;;;;4904099;29;20292;-71
2022/09/25 00:03:07;;;;;;;16.77;13.75;;;;;;;;;;4918279;29;20056;-71
2022/09/25 00:05:35;;;;;;;23.05;13.98;;;;;;;;;;4903599;29;20055;-70
2022/09/25 00:08:01;;;;;;;63.08;15.10;;;;;;;;;;4903957;29;20048;-71
2022/09/25 00:10:28;;;;;;;32.08;15.63;;;;;;;;;;4903664;29;20123;-70
2022/09/25 00:12:54;;;;;;;36.13;14.60;;;;;;;;;;4903757;29;20401;-71
2022/09/25 00:15:20;;;;;;;69.25;14.77;;;;;;;;;;4904092;29;20063;-69
2022/09/25 00:17:45;;;;;;;20.00;14.18;;;;;;;;;;4917412;28;20058;-69
2022/09/25 00:20:11;;;;;;;21.65;14.93;;;;;;;;;;4903384;29;20083;-71
2022/09/25 00:22:36;;;;;;;17.00;13.70;;;;;;;;;;4907377;29;20063;-70
2022/09/25 00:25:02;;;;;;;17.65;13.45;;;;;;;;;;4922248;29;20046;-70
2022/09/25 00:27:28;;;;;;;20.95;13.65;;;;;;;;;;4907365;29;20062;-69
2022/09/25 00:29:53;;;;;;;16.20;13.40;;;;;;;;;;4907028;29;20052;-70
2022/09/25 00:32:18;;;;;;;27.42;14.23;;;;;;;;;;4921067;29;20044;-70
2022/09/25 00:34:44;;;;;;;18.48;13.85;;;;;;;;;;4907481;29;20191;-70
2022/09/25 00:37:09;;;;;;;31.88;18.17;;;;;;;;;;4907623;29;20513;-71
2022/09/25 00:39:35;;;;;;;129.25;32.97;;;;;;;;;;4921395;29;20044;-70
2022/09/25 00:42:00;;;;;;;61.03;26.83;;;;;;;;;;4907221;29;20052;-70
2022/09/25 00:44:55;;;;;;;36.20;18.92;;;;;;;;;;4906374;29;20107;-69
2022/09/25 00:47:31;;;;;;;28.60;16.13;;;;;;;;;;4907079;29;20047;-69
2022/09/25 00:50:01;;;;;;;24.75;14.50;;;;;;;;;;4906711;29;20059;-68
2022/09/25 00:52:26;;;;;;;20.20;14.57;;;;;;;;;;4906587;29;20633;-69
2022/09/25 00:54:57;;;;;;;46.47;15.05;;;;;;;;;;4907157;29;20051;-68
2022/09/25 00:57:26;;;;;;;34.53;14.88;;;;;;;;;;4907121;29;20417;-68
2022/09/25 00:59:58;;;;;;;30.30;14.85;;;;;;;;;;4907156;29;20063;-69
2022/09/25 01:02:29;;;;;;;21.08;13.27;;;;;;;;;;4906386;29;20696;-69
2022/09/25 01:04:58;;;;;;;19.63;13.40;;;;;;;;;;4905736;29;20067;-69
2022/09/25 01:07:24;;;;;;;15.35;13.43;;;;;;;;;;4907081;29;20124;-69
2022/09/25 01:09:50;;;;;;;22.98;12.70;;;;;;;;;;4907220;29;20090;-68
2022/09/25 01:12:15;;;;;;;14.90;13.07;;;;;;;;;;4910299;29;20050;-69
2022/09/25 01:14:42;;;;;;;17.00;13.30;;;;;;;;;;4906863;29;20051;-69
2022/09/25 01:17:10;;;;;;;18.02;14.45;;;;;;;;;;4914535;28;20052;-69
2022/09/25 01:19:48;;;;;;;17.42;14.05;;;;;;;;;;4907047;29;20055;-68
2022/09/25 01:22:51;;;;;;;15.10;12.88;;;;;;;;;;4903857;29;20052;-69
2022/09/25 01:25:43;;;;;;;18.00;12.52;;;;;;;;;;4904869;29;20501;-68
2022/09/25 01:28:28;;;;;;;13.77;12.18;;;;;;;;;;4904158;28;20055;-69
2022/09/25 01:31:00;;;;;;;16.25;13.40;;;;;;;;;;4911732;29;20539;-68
2022/09/25 01:33:54;;;;;;;15.65;13.90;;;;;;;;;;4904991;29;20102;-71
2022/09/25 01:36:35;;;;;;;14.20;12.70;;;;;;;;;;4908365;29;20057;-69
2022/09/25 01:39:14;;;;;;;16.87;14.80;;;;;;;;;;4911458;29;20094;-68
2022/09/25 01:41:49;;;;;;;15.75;12.52;;;;;;;;;;4906755;29;21465;-68
2022/09/25 01:44:35;;;;;;;14.85;12.35;;;;;;;;;;4906160;29;20108;-68
2022/09/25 01:47:09;;;;;;;15.27;11.77;;;;;;;;;;4906842;29;20582;-69
2022/09/25 01:49:41;;;;;;;15.70;12.05;;;;;;;;;;4906808;29;20036;-69
2022/09/25 01:52:11;;;;;;;11.55;10.35;;;;;;;;;;4906959;29;20091;-69
2022/09/25 01:54:48;;;;;;;12.30;10.95;;;;;;;;;;4902638;29;20151;-68
2022/09/25 01:57:23;;;;;;;11.70;10.38;;;;;;;;;;4913293;29;20044;-69
2022/09/25 02:00:11;;;;;;;11.00;9.80;;;;;;;;;;4923905;29;20607;-69
2022/09/25 02:02:53;;;;;;;13.02;9.75;;;;;;;;;;4916145;29;20059;-69
2022/09/25 02:05:29;;;;;;;13.02;10.02;;;;;;;;;;4916329;28;20052;-69
2022/09/25 02:08:04;;;;;;;19.48;14.52;;;;;;;;;;4914620;29;20074;-69
2022/09/25 02:10:47;;;;;;;17.13;13.48;;;;;;;;;;4905530;29;20087;-69
2022/09/25 02:13:16;;;;;;;19.65;13.85;;;;;;;;;;4905546;29;20569;-70
2022/09/25 02:16:05;;;;;;;19.52;15.18;;;;;;;;;;4920451;29;20057;-70
2022/09/25 02:21:54;;;;;;;14.07;11.98;;;;;;;;;;4905535;29;20048;-69
2022/09/25 02:24:31;;;;;;;13.18;10.43;;;;;;;;;;4904693;29;20071;-69
2022/09/25 02:26:56;;;;;;;15.48;10.95;;;;;;;;;;4905549;29;20062;-70
2022/09/25 02:29:22;;;;;;;10.93;9.23;;;;;;;;;;4905074;29;20047;-70
2022/09/25 02:31:57;;;;;;;12.63;10.50;;;;;;;;;;4905013;29;20482;-70
2022/09/25 02:34:22;;;;;;;11.57;8.55;;;;;;;;;;4905014;29;20040;-69
2022/09/25 02:36:48;;;;;;;14.50;8.80;;;;;;;;;;4905449;29;20052;-69
2022/09/25 02:39:17;;;;;;;9.15;7.85;;;;;;;;;;4909339;29;20118;-69
2022/09/25 02:41:48;;;;;;;9.10;8.00;;;;;;;;;;4905338;29;20056;-69
2022/09/25 02:44:22;;;;;;;8.43;7.20;;;;;;;;;;4903653;29;20108;-69
2022/09/25 02:47:21;;;;;;;9.35;8.38;;;;;;;;;;4905262;29;20421;-69
2022/09/25 02:49:55;;;;;;;9.82;8.40;;;;;;;;;;4904385;29;20059;-69
2022/09/25 02:52:32;;;;;;;10.02;8.13;;;;;;;;;;4904880;29;20054;-70
2022/09/25 02:55:33;;;;;;;12.00;8.35;;;;;;;;;;4905350;29;20179;-70
2022/09/25 02:58:15;;;;;;;9.90;8.30;;;;;;;;;;4904489;29;20051;-69
2022/09/25 03:00:43;;;;;;;60.75;9.43;;;;;;;;;;4916882;29;20055;-70
2022/09/25 03:03:12;;;;;;;10.70;9.60;;;;;;;;;;4904575;29;20048;-70
2022/09/25 03:05:38;;;;;;;9.85;8.85;;;;;;;;;;4905178;29;20064;-70
2022/09/25 03:10:48;;;;;;;9.48;8.57;;;;;;;;;;4916803;29;20293;-69
2022/09/25 03:13:21;;;;;;;103.60;13.80;;;;;;;;;;4904107;29;20497;-70
2022/09/25 03:19:34;;;;;;;12.00;10.13;;;;;;;;;;4909251;29;20082;-70
2022/09/25 03:22:00;;;;;;;12.85;11.35;;;;;;;;;;4904790;29;20146;-70
2022/09/25 03:24:26;;;;;;;10.88;9.77;;;;;;;;;;4903823;29;20060;-71
2022/09/25 03:26:52;;;;;;;12.10;9.63;;;;;;;;;;4904779;29;20063;-70
2022/09/25 03:29:20;;;;;;;11.80;10.45;;;;;;;;;;4909739;29;20139;-70
2022/09/25 03:31:46;;;;;;;17.50;13.27;;;;;;;;;;4904376;29;20064;-70
2022/09/25 03:34:13;;;;;;;15.85;14.00;;;;;;;;;;4903389;29;20062;-70
2022/09/25 03:36:39;;;;;;;21.75;19.42;;;;;;;;;;4905491;29;20040;-70
2022/09/25 03:39:05;;;;;;;16.05;14.13;;;;;;;;;;4907599;29;21575;-70
2022/09/25 03:41:32;;;;;;;18.42;14.85;;;;;;;;;;4909745;28;20142;-70
2022/09/25 03:43:58;;;;;;;13.75;12.27;;;;;;;;;;4904196;29;20052;-70
2022/09/25 03:46:34;;;;;;;9.95;8.95;;;;;;;;;;4908037;28;20044;-70
2022/09/25 03:49:01;;;;;;;8.82;7.93;;;;;;;;;;4904390;29;20629;-70
2022/09/25 03:51:28;;;;;;;7.82;7.13;;;;;;;;;;4904383;29;20525;-70
2022/09/25 03:53:54;;;;;;;8.98;8.07;;;;;;;;;;4904370;29;20063;-70
2022/09/25 03:56:22;;;;;;;8.93;8.13;;;;;;;;;;4903597;29;20044;-69
2022/09/25 03:58:49;;;;;;;8.18;7.40;;;;;;;;;;4907910;29;20110;-70
2022/09/25 04:01:18;;;;;;;7.72;7.03;;;;;;;;;;4908303;29;20036;-70
2022/09/25 04:03:46;;;;;;;8.20;7.40;;;;;;;;;;4906120;29;20067;-70
2022/09/25 04:06:19;;;;;;;11.43;8.88;;;;;;;;;;4906216;29;20528;-70
2022/09/25 04:08:46;;;;;;;9.50;8.60;;;;;;;;;;4908242;29;20052;-70
2022/09/25 04:11:13;;;;;;;9.60;8.70;;;;;;;;;;4907749;29;20406;-70
2022/09/25 04:13:43;;;;;;;8.90;8.10;;;;;;;;;;4907721;29;20056;-70
2022/09/25 04:16:09;;;;;;;9.65;7.13;;;;;;;;;;4907653;29;20048;-71
2022/09/25 04:18:35;;;;;;;10.88;7.03;;;;;;;;;;4912145;29;20051;-70
2022/09/25 04:21:03;;;;;;;7.78;6.97;;;;;;;;;;4916234;29;20102;-70
2022/09/25 04:27:21;;;;;;;7.05;6.35;;;;;;;;;;4922665;28;20114;-69
2022/09/25 04:29:47;;;;;;;7.53;6.72;;;;;;;;;;4911388;29;20075;-70
2022/09/25 04:34:59;;;;;;;8.50;6.90;;;;;;;;;;4906771;29;20052;-70
2022/09/25 04:37:25;;;;;;;8.55;7.75;;;;;;;;;;4907060;29;20119;-71
2022/09/25 04:39:55;;;;;;;12.93;10.85;;;;;;;;;;4905933;29;20064;-70
2022/09/25 04:42:23;;;;;;;10.90;9.50;;;;;;;;;;4906414;29;20147;-70
2022/09/25 04:44:54;;;;;;;10.73;9.00;;;;;;;;;;4907045;29;20060;-70
2022/09/25 04:47:21;;;;;;;10.63;9.40;;;;;;;;;;4907162;29;20055;-70
2022/09/25 04:49:47;;;;;;;12.88;9.95;;;;;;;;;;4910925;29;20303;-71
2022/09/25 04:52:17;;;;;;;14.45;9.45;;;;;;;;;;4902171;29;20043;-71
2022/09/25 04:54:43;;;;;;;11.75;8.13;;;;;;;;;;4906561;29;20135;-72
2022/09/25 04:57:13;;;;;;;7.47;6.78;;;;;;;;;;4906749;29;20083;-73
2022/09/25 04:59:39;;;;;;;7.78;6.97;;;;;;;;;;4923572;29;20055;-71
2022/09/25 05:02:05;;;;;;;8.65;6.85;;;;;;;;;;4916151;29;20052;-69
2022/09/25 05:04:30;;;;;;;7.93;6.10;;;;;;;;;;4905562;29;20409;-69
2022/09/25 05:06:56;;;;;;;8.45;6.63;;;;;;;;;;4905256;29;20338;-69
2022/09/25 05:09:21;;;;;;;7.10;6.40;;;;;;;;;;4905942;29;20040;-70
2022/09/25 05:11:47;;;;;;;7.35;6.57;;;;;;;;;;4908947;29;20515;-70
2022/09/25 05:14:12;;;;;;;8.55;6.85;;;;;;;;;;4908892;28;20079;-72
2022/09/25 05:16:38;;;;;;;9.82;7.65;;;;;;;;;;4913133;29;20504;-72
2022/09/25 05:19:03;;;;;;;10.20;9.10;;;;;;;;;;4909264;29;20520;-71
2022/09/25 05:21:29;;;;;;;9.90;8.88;;;;;;;;;;4914800;28;20059;-74
2022/09/25 05:23:55;;;;;;;9.32;8.30;;;;;;;;;;4907668;29;20087;-71
2022/09/25 05:26:22;;;;;;;9.82;8.82;;;;;;;;;;4905636;29;20863;-74
2022/09/25 05:28:50;;;;;;;7.80;7.00;;;;;;;;;;4908213;29;20056;-71
2022/09/25 05:31:16;;;;;;;7.95;7.20;;;;;;;;;;4920121;29;20076;-70
2022/09/25 05:33:44;;;;;;;7.65;6.93;;;;;;;;;;4908928;29;20044;-72
2022/09/25 05:36:11;;;;;;;8.32;7.03;;;;;;;;;;4910269;29;20044;-73
2022/09/25 05:38:39;;;;;;;7.53;6.50;;;;;;;;;;4916037;28;20079;-72
2022/09/25 05:41:07;;;;;;;8.75;6.57;;;;;;;;;;4912997;29;20047;-73
2022/09/25 05:43:33;;;;;;;7.50;5.88;;;;;;;;;;4908942;29;20923;-73
2022/09/25 05:45:59;;;;;;;8.70;6.43;;;;;;;;;;4908034;29;20052;-70
2022/09/25 05:48:25;;;;;;;6.68;6.07;;;;;;;;;;4911702;29;20056;-72
2022/09/25 05:50:51;;;;;;;6.13;5.53;;;;;;;;;;4899566;29;20059;-73
2022/09/25 05:53:17;;;;;;;6.35;5.75;;;;;;;;;;4903886;29;20075;-71
2022/09/25 05:55:51;;;;;;;5.88;5.38;;;;;;;;;;4903510;29;20513;-72
2022/09/25 05:58:17;;;;;;;7.15;5.72;;;;;;;;;;4902786;28;20048;-70
2022/09/25 06:00:43;;;;;;;6.05;5.50;;;;;;;;;;4904740;29;20059;-71
2022/09/25 06:03:09;;;;;;;6.85;5.75;;;;;;;;;;4905493;29;20059;-70
2022/09/25 06:05:35;;;;;;;7.70;6.90;;;;;;;;;;4905141;29;20040;-71
2022/09/25 06:08:00;;;;;;;8.25;6.97;;;;;;;;;;4898999;29;20048;-72
2022/09/25 06:10:26;;;;;;;7.90;6.80;;;;;;;;;;4906108;29;20043;-72
2022/09/25 06:12:57;;;;;;;8.93;8.02;;;;;;;;;;4904164;29;20044;-71
2022/09/25 06:15:24;;;;;;;11.10;8.00;;;;;;;;;;4903831;29;20083;-69
2022/09/25 06:17:50;;;;;;;13.82;8.70;;;;;;;;;;4903209;29;20044;-71
2022/09/25 06:20:15;;;;;;;10.25;7.55;;;;;;;;;;4901984;29;20044;-72
2022/09/25 06:22:42;;;;;;;6.97;6.28;;;;;;;;;;4904245;29;20405;-70
2022/09/25 06:25:09;;;;;;;8.57;6.38;;;;;;;;;;4907203;29;20048;-73
2022/09/25 06:27:36;;;;;;;8.57;7.18;;;;;;;;;;4905423;28;20047;-73
2022/09/25 06:30:02;;;;;;;7.88;6.63;;;;;;;;;;4901982;29;20040;-70
2022/09/25 06:32:27;;;;;;;6.40;5.70;;;;;;;;;;4904646;29;20048;-70
2022/09/25 06:34:53;;;;;;;8.27;6.00;;;;;;;;;;4905681;29;20508;-72
2022/09/25 06:37:18;;;;;;;11.40;5.72;;;;;;;;;;4904588;29;20052;-72
2022/09/25 06:39:44;;;;;;;8.27;6.03;;;;;;;;;;4904146;29;20044;-70
2022/09/25 06:42:09;;;;;;;6.18;5.63;;;;;;;;;;4916963;28;20115;-70
2022/09/25 06:44:35;;;;;;;6.55;5.95;;;;;;;;;;4904999;29;20052;-70
2022/09/25 06:47:00;;;;;;;6.85;5.22;;;;;;;;;;4908090;28;20111;-70
2022/09/25 06:49:26;;;;;;;6.75;5.43;;;;;;;;;;4906213;28;20082;-70
2022/09/25 06:51:52;;;;;;;6.32;5.72;;;;;;;;;;4905939;29;20044;-73
2022/09/25 06:54:17;;;;;;;6.40;5.80;;;;;;;;;;4903082;29;20056;-69
2022/09/25 06:56:43;;;;;;;6.32;5.25;;;;;;;;;;4902096;29;20067;-70
2022/09/25 06:59:08;;;;;;;6.68;5.70;;;;;;;;;;4909561;29;20542;-70
2022/09/25 07:01:34;;;;;;;6.60;6.00;;;;;;;;;;4904675;29;20051;-72
2022/09/25 07:04:00;;;;;;;8.55;5.68;;;;;;;;;;4907108;29;20099;-72
2022/09/25 07:06:27;;;;;;;7.50;5.95;;;;;;;;;;4908185;29;20178;-72
2022/09/25 07:08:55;;;;;;;5.80;5.30;;;;;;;;;;4907845;29;20162;-69
2022/09/25 07:11:23;;;;;;;5.43;4.93;;;;;;;;;;4925047;28;20528;-73
2022/09/25 07:13:51;;;;;;;5.60;5.10;;;;;;;;;;4910191;29;20050;-70
2022/09/25 07:16:18;;;;;;;5.05;4.65;;;;;;;;;;4909528;29;20044;-72
2022/09/25 07:18:45;;;;;;;15.27;4.78;;;;;;;;;;4910152;29;20063;-73
2022/09/25 07:21:16;;;;;;;4.47;3.97;;;;;;;;;;4912876;29;20047;-73
2022/09/25 07:23:42;;;;;;;4.53;4.03;;;;;;;;;;4907201;29;20047;-74
2022/09/25 07:26:11;;;;;;;4.20;3.90;;;;;;;;;;4905361;29;20718;-69
2022/09/25 07:28:38;;;;;;;4.63;4.22;;;;;;;;;;4909753;28;20051;-72
2022/09/25 07:31:15;;;;;;;4.45;4.15;;;;;;;;;;4904720;29;20076;-72
2022/09/25 07:33:41;;;;;;;4.75;4.20;;;;;;;;;;4903646;29;20047;-73
2022/09/25 07:36:08;;;;;;;4.05;3.75;;;;;;;;;;4904401;29;20051;-74
2022/09/25 07:38:35;;;;;;;5.85;4.53;;;;;;;;;;4902606;29;20082;-75
2022/09/25 07:41:05;;;;;;;4.90;4.45;;;;;;;;;;4906028;29;20055;-70
2022/09/25 07:43:31;;;;;;;3.92;3.53;;;;;;;;;;4906398;29;20086;-71
2022/09/25 07:45:58;;;;;;;3.85;3.55;;;;;;;;;;4912911;29;20059;-72
2022/09/25 07:48:23;;;;;;;4.13;3.70;;;;;;;;;;4910162;29;20489;-72
2022/09/25 07:50:49;;;;;;;7.47;5.78;;;;;;;;;;4907749;29;20155;-71
2022/09/25 07:53:18;;;;;;;4.22;3.83;;;;;;;;;;4923274;28;20728;-70
2022/09/25 07:55:46;;;;;;;7.93;3.95;;;;;;;;;;4907978;29;20044;-70
2022/09/25 07:58:13;;;;;;;5.93;4.32;;;;;;;;;;4908427;29;20076;-71
2022/09/25 08:00:39;;;;;;;4.35;3.92;;;;;;;;;;4912745;29;20505;-70
2022/09/25 08:03:05;;;;;;;3.90;3.60;;;;;;;;;;4904586;29;20561;-71
2022/09/25 08:05:31;;;;;;;3.67;3.38;;;;;;;;;;4906552;29;20067;-71
2022/09/25 08:07:56;;;;;;;3.05;2.85;;;;;;;;;;4903839;29;20060;-70
2022/09/25 08:10:22;;;;;;;3.55;3.00;;;;;;;;;;4902229;29;20082;-70
2022/09/25 08:12:48;;;;;;;3.10;2.80;;;;;;;;;;4906031;29;20050;-70
2022/09/25 08:15:14;;;;;;;2.85;2.63;;;;;;;;;;4913970;29;20103;-69
2022/09/25 08:17:40;;;;;;;4.63;3.10;;;;;;;;;;4913436;29;20048;-70
2022/09/25 08:20:06;;;;;;;2.50;2.30;;;;;;;;;;4908134;28;20066;-71
2022/09/25 08:22:32;;;;;;;2.88;2.60;;;;;;;;;;4902653;29;21122;-69
2022/09/25 08:25:01;;;;;;;3.22;2.92;;;;;;;;;;4903507;29;20048;-72
2022/09/25 08:27:28;;;;;;;2.97;2.78;;;;;;;;;;4914255;29;20848;-69
2022/09/25 08:29:53;;;;;;;3.58;3.28;;;;;;;;;;4903388;29;20133;-70
2022/09/25 08:32:19;;;;;;;2.75;2.55;;;;;;;;;;4902702;29;20677;-68
2022/09/25 08:34:44;;;;;;;5.18;3.10;;;;;;;;;;4902122;29;20048;-69
2022/09/25 08:37:10;;;;;;;3.60;2.90;;;;;;;;;;4902847;29;20057;-68
2022/09/25 08:39:36;;;;;;;5.20;3.30;;;;;;;;;;4901751;29;20048;-69
2022/09/25 08:42:01;;;;;;;3.15;2.90;;;;;;;;;;4902100;29;20468;-68
2022/09/25 08:44:40;;;;;;;3.35;3.10;;;;;;;;;;4904589;29;20147;-68
2022/09/25 08:50:08;;;;;;;3.50;3.20;;;;;;;;;;4913751;29;20147;-67
2022/09/25 08:52:34;;;;;;;4.28;3.10;;;;;;;;;;4905127;29;20056;-68
2022/09/25 08:54:59;;;;;;;4.30;2.90;;;;;;;;;;4908536;29;20082;-69
2022/09/25 08:57:39;;;;;;;3.03;2.60;;;;;;;;;;4906849;29;20623;-68
2022/09/25 09:00:09;;;;;;;3.72;3.00;;;;;;;;;;4911165;29;20052;-68
2022/09/25 09:02:39;;;;;;;3.15;2.85;;;;;;;;;;4906204;29;20135;-69
2022/09/25 09:05:14;;;;;;;4.57;4.18;;;;;;;;;;4911295;29;20060;-68
2022/09/25 09:07:48;;;;;;;3.42;3.13;;;;;;;;;;4906972;29;20044;-69
2022/09/25 09:10:49;;;;;;;3.25;2.75;;;;;;;;;;4906590;29;20292;-68
2022/09/25 09:14:01;;;;;;;2.90;2.70;;;;;;;;;;4916160;29;20504;-69
2022/09/25 09:16:41;;;;;;;2.65;2.45;;;;;;;;;;4902170;29;20095;-69
2022/09/25 09:19:09;;;;;;;2.53;2.33;;;;;;;;;;4905763;29;20429;-68
2022/09/25 09:21:34;;;;;;;1.88;1.63;;;;;;;;;;4906575;29;20048;-68
2022/09/25 09:24:21;;;;;;;2.78;2.30;;;;;;;;;;4905737;29;20070;-69
2022/09/25 09:27:05;;;;;;;2.63;2.42;;;;;;;;;;4924082;29;20088;-68
2022/09/25 09:30:08;;;;;;;3.28;2.50;;;;;;;;;;4905351;29;20052;-68
2022/09/25 09:32:42;;;;;;;2.60;2.40;;;;;;;;;;4903771;29;20131;-68
2022/09/25 09:35:13;;;;;;;2.80;2.50;;;;;;;;;;4903171;29;20083;-68
2022/09/25 09:37:44;;;;;;;2.38;2.17;;;;;;;;;;4907226;29;20075;-68
2022/09/25 09:40:28;;;;;;;2.90;2.70;;;;;;;;;;4905692;29;20070;-68
2022/09/25 09:43:03;;;;;;;4.22;2.67;;;;;;;;;;4918229;29;20079;-68
2022/09/25 09:45:38;;;;;;;2.35;2.15;;;;;;;;;;4905287;29;20059;-68
2022/09/25 09:48:28;;;;;;;3.25;2.50;;;;;;;;;;4910673;29;20139;-68
2022/09/25 09:51:04;;;;;;;2.55;2.35;;;;;;;;;;4915299;29;20052;-70
2022/09/25 09:53:39;;;;;;;2.90;2.15;;;;;;;;;;4919429;28;20058;-71
2022/09/25 09:56:17;;;;;;;7.97;2.50;;;;;;;;;;4905045;29;20044;-70
2022/09/25 09:59:32;;;;;;;7.35;4.28;;;;;;;;;;4926070;29;20390;-69
2022/09/25 10:02:17;;;;;;;4.07;2.80;;;;;;;;;;4905165;29;20055;-70
2022/09/25 10:04:44;;;;;;;7.53;4.45;;;;;;;;;;4902701;29;20059;-70
2022/09/25 10:07:17;;;;;;;3.25;2.60;;;;;;;;;;4908515;29;20561;-70
2022/09/25 10:09:43;;;;;;;11.77;5.22;;;;;;;;;;4897587;29;20774;-69
2022/09/25 10:12:22;;;;;;;5.22;3.38;;;;;;;;;;4901057;29;20048;-71
2022/09/25 10:14:48;;;;;;;3.10;2.60;;;;;;;;;;4916876;29;20051;-71
2022/09/25 10:17:15;;;;;;;3.75;2.85;;;;;;;;;;4919411;29;20052;-70
2022/09/25 10:19:51;;;;;;;2.78;2.55;;;;;;;;;;4904359;29;20052;-71
2022/09/25 10:22:24;;;;;;;3.47;2.67;;;;;;;;;;4907499;29;20191;-70
2022/09/25 10:25:00;;;;;;;4.10;2.22;;;;;;;;;;4905132;29;20063;-70
2022/09/25 10:27:30;;;;;;;2.40;2.20;;;;;;;;;;4909212;29;20134;-72
2022/09/25 10:30:10;;;;;;;2.95;2.00;;;;;;;;;;4919186;28;20138;-70
2022/09/25 10:32:47;;;;;;;3.00;1.92;;;;;;;;;;4905800;29;20078;-70
2022/09/25 10:35:18;;;;;;;2.40;2.20;;;;;;;;;;4904572;29;20052;-71
2022/09/25 10:37:47;;;;;;;2.15;2.05;;;;;;;;;;4904266;29;20044;-71
2022/09/25 10:40:37;;;;;;;2.33;2.13;;;;;;;;;;4904224;29;20044;-70
2022/09/25 10:43:13;;;;;;;2.30;2.10;;;;;;;;;;4904624;29;20059;-70
2022/09/25 10:45:39;;;;;;;2.45;2.25;;;;;;;;;;4905367;29;20588;-72
2022/09/25 10:51:10;;;;;;;2.15;2.00;;;;;;;;;;4924900;29;20048;-74
2022/09/25 10:53:36;;;;;;;2.42;2.22;;;;;;;;;;4912063;28;20051;-72
2022/09/25 10:56:11;;;;;;;3.45;2.38;;;;;;;;;;4916972;29;20058;-71
2022/09/25 10:58:53;;;;;;;2.83;1.73;;;;;;;;;;4909343;29;20743;-72
2022/09/25 11:01:20;;;;;;;2.15;1.70;;;;;;;;;;4910710;29;20040;-72
2022/09/25 11:03:57;;;;;;;1.70;1.60;;;;;;;;;;4908593;29;20064;-72
2022/09/25 11:06:32;;;;;;;1.88;1.77;;;;;;;;;;4908435;28;20059;-70
2022/09/25 11:09:13;;;;;;;2.15;1.90;;;;;;;;;;4914593;29;20044;-72
2022/09/25 11:11:40;;;;;;;4.15;2.60;;;;;;;;;;4906717;29;20060;-70
2022/09/25 11:14:37;;;;;;;3.22;2.63;;;;;;;;;;4918308;29;20074;-70
2022/09/25 11:17:05;;;;;;;2.67;2.47;;;;;;;;;;4897799;29;20151;-70
2022/09/25 11:19:36;;;;;;;2.60;2.40;;;;;;;;;;4914002;29;20122;-70
2022/09/25 11:22:13;;;;;;;2.80;2.47;;;;;;;;;;4913660;29;20053;-70
2022/09/25 11:24:50;;;;;;;2.65;2.45;;;;;;;;;;4911069;29;20060;-69
2022/09/25 11:27:15;;;;;;;3.45;2.58;;;;;;;;;;4907220;28;20048;-70
2022/09/25 11:29:47;;;;;;;6.45;2.28;;;;;;;;;;4906909;29;20047;-72
2022/09/25 11:32:31;;;;;;;3.13;2.83;;;;;;;;;;4911298;29;20441;-71
2022/09/25 11:35:15;;;;;;;4.05;2.60;;;;;;;;;;4900046;29;20486;-70
2022/09/25 11:38:00;;;;;;;3.15;2.85;;;;;;;;;;4914296;29;20395;-70
2022/09/25 11:43:19;;;;;;;3.20;2.83;;;;;;;;;;4901959;29;20059;-69
2022/09/25 11:45:46;;;;;;;;;;;;;;;;;;4904294;29;20076;-70
2022/09/25 11:48:31;;;;;;;3.40;3.10;;;;;;;;;;4902735;29;19923;-70
2022/09/25 11:51:23;;;;;;;3.25;2.95;;;;;;;;;;4916623;29;20094;-69
2022/09/25 11:54:12;;;;;;;3.50;2.63;;;;;;;;;;4906425;29;20043;-69
2022/09/25 11:57:08;;;;;;;4.32;3.45;;;;;;;;;;4900383;29;20052;-72
2022/09/25 11:59:45;;;;;;;3.42;2.80;;;;;;;;;;4903008;29;20515;-70
2022/09/25 12:02:47;;;;;;;6.20;4.75;;;;;;;;;;4903584;29;20453;-69
2022/09/25 12:05:58;;;;;;;3.45;2.60;;;;;;;;;;4906733;28;20455;-69
2022/09/25 12:08:43;;;;;;;6.28;3.20;;;;;;;;;;4894589;29;20736;-69
2022/09/25 12:11:15;;;;;;;2.80;2.60;;;;;;;;;;4902209;29;20062;-69
2022/09/25 12:13:53;;;;;;;2.50;2.30;;;;;;;;;;4901969;29;20071;-69
2022/09/25 12:16:33;;;;;;;3.80;2.42;;;;;;;;;;4901403;29;20513;-69
2022/09/25 12:19:25;;;;;;;2.65;2.45;;;;;;;;;;4905222;29;21257;-69
2022/09/25 12:22:15;;;;;;;4.50;2.50;;;;;;;;;;4905628;29;20052;-70
2022/09/25 12:25:03;;;;;;;1.92;1.83;;;;;;;;;;4905092;29;20052;-69
2022/09/25 12:27:59;;;;;;;1.73;1.60;;;;;;;;;;4907177;29;20044;-69
2022/09/25 12:31:04;;;;;;;1.95;1.75;;;;;;;;;;4925417;28;20044;-69
2022/09/25 12:34:02;;;;;;;3.92;1.98;;;;;;;;;;4905454;29;20040;-70
2022/09/25 12:36:35;;;;;;;2.30;2.10;;;;;;;;;;4904693;29;20052;-70
2022/09/25 12:39:24;;;;;;;2.25;2.05;;;;;;;;;;4919045;29;20059;-71
2022/09/25 12:42:16;;;;;;;2.10;1.60;;;;;;;;;;4905723;28;20044;-71
2022/09/25 12:44:59;;;;;;;2.85;1.67;;;;;;;;;;4903622;29;20637;-72
2022/09/25 12:47:40;;;;;;;3.28;2.00;;;;;;;;;;4905002;29;20040;-72
2022/09/25 12:50:12;;;;;;;1.95;1.75;;;;;;;;;;4907068;29;20083;-69
2022/09/25 12:53:01;;;;;;;1.75;1.65;;;;;;;;;;4905289;29;20048;-69
2022/09/25 12:56:29;;;;;;;1.80;1.70;;;;;;;;;;4904956;29;20079;-69
2022/09/25 12:59:07;;;;;;;2.10;1.90;;;;;;;;;;4881632;29;20054;-72
2022/09/25 13:01:45;;;;;;;2.08;1.80;;;;;;;;;;4905607;29;20048;-69
2022/09/25 13:04:35;;;;;;;2.55;1.50;;;;;;;;;;4905326;29;20060;-70
2022/09/25 13:07:14;;;;;;;2.65;1.90;;;;;;;;;;4914942;29;20040;-70
2022/09/25 13:09:45;;;;;;;2.03;1.75;;;;;;;;;;4911495;29;20421;-70
2022/09/25 13:12:36;;;;;;;1.53;1.43;;;;;;;;;;4909117;29;20048;-69
2022/09/25 13:15:13;;;;;;;1.67;1.30;;;;;;;;;;4925143;29;20052;-70
2022/09/25 13:17:39;;;;;;;2.22;1.60;;;;;;;;;;4908158;28;20067;-71
2022/09/25 13:20:35;;;;;;;2.38;1.85;;;;;;;;;;4906219;29;20095;-70
2022/09/25 13:23:25;;;;;;;1.88;1.50;;;;;;;;;;4888829;29;20052;-69
2022/09/25 13:26:00;;;;;;;2.63;2.25;;;;;;;;;;4907664;29;20054;-70
2022/09/25 13:28:48;;;;;;;5.22;1.90;;;;;;;;;;4902216;29;20087;-71
2022/09/25 13:31:22;;;;;;;2.08;1.88;;;;;;;;;;4903877;29;20135;-72
2022/09/25 13:33:59;;;;;;;1.85;1.65;;;;;;;;;;4904145;29;20060;-69
2022/09/25 13:36:25;;;;;;;1.52;1.42;;;;;;;;;;4911078;29;20072;-72
2022/09/25 13:41:49;;;;;;;2.22;2.03;;;;;;;;;;4905463;29;20135;-70
2022/09/25 13:44:40;;;;;;;3.50;2.00;;;;;;;;;;4904020;29;20060;-70
2022/09/25 13:47:21;;;;;;;3.20;2.40;;;;;;;;;;4915029;29;20054;-71
2022/09/25 13:49:53;;;;;;;;;;;;;;;;;;4907317;29;20115;-71
2022/09/25 13:56:01;;;;;;;3.70;2.72;;;;;;;;;;4904647;29;20052;-70
2022/09/25 13:58:47;;;;;;;4.22;2.67;;;;;;;;;;4903529;29;20100;-71
2022/09/25 14:01:32;;;;;;;3.58;3.05;;;;;;;;;;4903980;29;20143;-69
2022/09/25 14:03:57;;;;;;;3.40;3.00;;;;;;;;;;4908353;29;20162;-71
2022/09/25 14:06:27;;;;;;;3.40;2.90;;;;;;;;;;4907339;29;20123;-70
2022/09/25 14:08:55;;;;;;;4.63;4.03;;;;;;;;;;4904011;29;20084;-69
2022/09/25 14:11:31;;;;;;;5.18;4.32;;;;;;;;;;4903627;29;20059;-70
2022/09/25 14:14:00;;;;;;;5.88;4.35;;;;;;;;;;4901694;29;20592;-71
2022/09/25 14:16:35;;;;;;;7.20;5.40;;;;;;;;;;4902938;29;20048;-70
2022/09/25 14:19:03;;;;;;;6.63;5.57;;;;;;;;;;4910025;28;20047;-70
2022/09/25 14:24:52;;;;;;;7.60;6.23;;;;;;;;;;4899865;29;20139;-71
2022/09/25 14:27:21;;;;;;;8.40;6.90;;;;;;;;;;4907622;29;20296;-69
2022/09/25 14:29:47;;;;;;;10.52;7.70;;;;;;;;;;4903722;29;20063;-69
2022/09/25 14:32:30;;;;;;;12.07;7.70;;;;;;;;;;4903698;29;20056;-71
2022/09/25 14:35:10;;;;;;;8.88;7.28;;;;;;;;;;4920793;29;20056;-70
2022/09/25 14:37:39;;;;;;;10.73;8.38;;;;;;;;;;4905669;29;20047;-69
2022/09/25 14:40:49;;;;;;;10.80;7.90;;;;;;;;;;4906406;29;20043;-69
2022/09/25 14:43:40;;;;;;;11.38;9.40;;;;;;;;;;4889549;29;20498;-69
2022/09/25 14:46:07;;;;;;;12.15;8.65;;;;;;;;;;4902538;29;20501;-69
2022/09/25 14:48:36;;;;;;;9.68;8.13;;;;;;;;;;4904974;29;20115;-68
2022/09/25 14:51:10;;;;;;;9.98;7.70;;;;;;;;;;4905416;29;20044;-71
2022/09/25 14:53:41;;;;;;;9.20;8.02;;;;;;;;;;4901775;29;20051;-72
2022/09/25 14:56:11;;;;;;;10.20;7.63;;;;;;;;;;4904631;29;20051;-69
2022/09/25 14:58:42;;;;;;;10.48;8.02;;;;;;;;;;4905958;29;20055;-69
2022/09/25 15:01:31;;;;;;;8.87;7.43;;;;;;;;;;4911479;29;20059;-69
2022/09/25 15:04:00;;;;;;;9.98;7.72;;;;;;;;;;4908408;29;20048;-69
2022/09/25 15:06:38;;;;;;;10.32;7.82;;;;;;;;;;4909814;28;20051;-71
2022/09/25 15:09:35;;;;;;;7.68;6.88;;;;;;;;;;4916986;29;20454;-70
2022/09/25 15:12:20;;;;;;;13.68;9.50;;;;;;;;;;4899446;29;20072;-70
2022/09/25 15:14:59;;;;;;;15.68;11.25;;;;;;;;;;4916703;29;20068;-69
2022/09/25 15:17:26;;;;;;;22.13;13.57;;;;;;;;;;4904739;29;20047;-71
2022/09/25 15:19:53;;;;;;;11.60;8.43;;;;;;;;;;4901964;29;20047;-71
2022/09/25 15:22:22;;;;;;;12.68;9.88;;;;;;;;;;4902978;29;20054;-71
2022/09/25 15:24:53;;;;;;;11.75;9.95;;;;;;;;;;4902408;29;20614;-71
2022/09/25 15:27:20;;;;;;;12.50;9.80;;;;;;;;;;4906223;29;20135;-70
2022/09/25 15:29:47;;;;;;;11.95;9.15;;;;;;;;;;4898439;29;20132;-69
2022/09/25 15:32:42;;;;;;;12.30;8.95;;;;;;;;;;4900709;29;20047;-71
2022/09/25 15:35:24;;;;;;;11.30;9.02;;;;;;;;;;4911559;29;20044;-69
2022/09/25 15:38:02;;;;;;;11.65;9.07;;;;;;;;;;4908879;29;20063;-68
2022/09/25 15:40:27;;;;;;;11.40;8.30;;;;;;;;;;4905979;29;20055;-68
2022/09/25 15:42:54;;;;;;;9.73;8.25;;;;;;;;;;4908360;28;20051;-67
2022/09/25 15:45:31;;;;;;;12.52;9.52;;;;;;;;;;4911471;29;20139;-69